Time;durP1;ratioP1;P1;durP2;ratioP2;P2;SDS_P1;SDS_P2;PMS_P1;PMS_P2;Temp;Humidity;BMP_temperature;BMP_pressure;BME280_temperature;BME280_humidity;BME280_pressure;Samples;Min_cycle;Max_cycle;Signal;HPM_P1;HPM_P2
2021/08/22 00:00:26;;;;;;;21.65;8.02;;;;;;;16.11;100.00;101323.63;5065285;28;20083;-67
2021/08/22 00:02:51;;;;;;;21.20;8.27;;;;;;;16.05;100.00;101329.03;5065973;28;20025;-67
2021/08/22 00:05:17;;;;;;;21.27;8.00;;;;;;;15.96;100.00;101327.34;5064006;28;20522;-66
2021/08/22 00:07:42;;;;;;;21.33;7.82;;;;;;;15.99;100.00;101319.31;5067029;28;20024;-67
2021/08/22 00:10:08;;;;;;;21.05;7.78;;;;;;;15.94;100.00;101323.78;5063369;28;20479;-68
2021/08/22 00:12:34;;;;;;;20.95;7.43;;;;;;;15.92;100.00;101325.59;5065958;28;20037;-67
2021/08/22 00:14:59;;;;;;;21.80;8.10;;;;;;;15.92;100.00;101322.94;5064556;28;20020;-66
2021/08/22 00:17:24;;;;;;;22.60;8.43;;;;;;;15.87;100.00;101324.75;5065271;28;20380;-67
2021/08/22 00:19:50;;;;;;;23.42;8.90;;;;;;;15.83;100.00;101312.38;5065588;28;20380;-67
2021/08/22 00:22:15;;;;;;;23.67;8.88;;;;;;;15.81;100.00;101314.16;5063474;28;20407;-67
2021/08/22 00:24:41;;;;;;;22.75;9.48;;;;;;;15.79;100.00;101321.28;5066686;28;20075;-66
2021/08/22 00:27:06;;;;;;;23.52;10.02;;;;;;;15.78;100.00;101319.47;5063008;28;20029;-67
2021/08/22 00:29:31;;;;;;;26.20;10.85;;;;;;;15.76;100.00;101311.50;5065567;28;20040;-66
2021/08/22 00:31:57;;;;;;;31.13;11.45;;;;;;;15.76;100.00;101315.97;5064416;28;20463;-64
2021/08/22 00:34:22;;;;;;;25.90;11.02;;;;;;;15.74;100.00;101320.41;5064187;28;20025;-65
2021/08/22 00:36:47;;;;;;;25.83;10.95;;;;;;;15.73;100.00;101315.97;5065631;28;20059;-68
2021/08/22 00:39:13;;;;;;;27.25;11.90;;;;;;;15.76;100.00;101331.97;5062678;28;20075;-70
2021/08/22 00:41:39;;;;;;;27.45;12.15;;;;;;;15.74;100.00;101321.31;5066412;28;20021;-64
2021/08/22 00:44:05;;;;;;;28.38;13.20;;;;;;;15.81;100.00;101325.72;5063443;28;20368;-64
2021/08/22 00:46:31;;;;;;;29.67;14.00;;;;;;;15.83;100.00;101323.03;5064869;28;20464;-64
2021/08/22 00:48:57;;;;;;;30.33;14.15;;;;;;;15.79;100.00;101318.63;5064039;28;20094;-63
2021/08/22 00:51:22;;;;;;;30.85;14.63;;;;;;;15.75;100.00;101317.72;5063736;28;20488;-64
2021/08/22 00:53:48;;;;;;;31.52;14.77;;;;;;;15.76;100.00;101314.16;5065514;28;20100;-63
2021/08/22 00:56:14;;;;;;;32.30;14.23;;;;;;;15.79;100.00;101321.28;5062647;28;20119;-63
2021/08/22 00:58:40;;;;;;;30.00;14.57;;;;;;;15.77;100.00;101312.38;5065699;28;20444;-64
2021/08/22 01:01:15;;;;;;;32.90;15.50;;;;;;;15.76;100.00;101318.63;5062656;28;20021;-64
2021/08/22 01:03:52;;;;;;;33.45;16.15;;;;;;;15.82;100.00;101308.81;5062554;28;20025;-64
2021/08/22 01:06:40;;;;;;;34.05;15.93;;;;;;;15.80;100.00;101307.03;5063068;28;20349;-64
2021/08/22 01:09:18;;;;;;;35.08;16.63;;;;;;;15.79;100.00;101297.31;5060814;28;20661;-65
2021/08/22 01:11:44;;;;;;;34.65;17.48;;;;;;;15.80;100.00;101296.38;5062021;28;20119;-64
2021/08/22 01:14:14;;;;;;;41.17;19.70;;;;;;;15.78;100.00;101304.41;5065949;28;20024;-65
2021/08/22 01:16:43;;;;;;;40.50;19.98;;;;;;;15.79;100.00;101297.31;5062209;28;20029;-68
2021/08/22 01:19:52;;;;;;;41.17;19.67;;;;;;;15.81;100.00;101300.81;5061959;28;20053;-68
2021/08/22 01:22:20;;;;;;;45.15;20.45;;;;;;;15.88;100.00;101305.19;5060207;28;20052;-67
2021/08/22 01:24:46;;;;;;;44.25;21.17;;;;;;;15.90;100.00;101302.50;5062855;28;20430;-68
2021/08/22 01:27:13;;;;;;;50.25;23.83;;;;;;;15.92;100.00;101296.28;5059741;28;20112;-68
2021/08/22 01:30:02;;;;;;;51.35;24.10;;;;;;;15.98;100.00;101290.88;5059735;28;20029;-68
2021/08/22 01:32:57;;;;;;;55.38;24.15;;;;;;;16.00;100.00;101293.50;5063095;28;20124;-68
2021/08/22 01:35:23;;;;;;;56.47;24.20;;;;;;;16.02;100.00;101287.28;4963564;28;20445;-68
2021/08/22 01:37:51;;;;;;;55.92;24.15;;;;;;;16.02;100.00;101295.28;4961865;28;20141;-68
2021/08/22 01:40:19;;;;;;;59.08;25.40;;;;;;;16.06;100.00;101300.56;4964052;28;20118;-68
2021/08/22 01:42:46;;;;;;;63.65;25.48;;;;;;;16.10;100.00;101297.84;4961425;28;20039;-68
2021/08/22 01:45:16;;;;;;;71.43;28.20;;;;;;;16.11;100.00;101306.75;4964269;28;20035;-68
2021/08/22 01:47:46;;;;;;;81.63;29.60;;;;;;;16.14;100.00;101299.56;4964703;28;20503;-68
2021/08/22 01:50:12;;;;;;;89.90;30.42;;;;;;;16.17;100.00;101299.53;4968038;28;20066;-68
2021/08/22 01:52:38;;;;;;;89.25;31.05;;;;;;;16.20;100.00;101306.63;4961127;28;20051;-68
2021/08/22 01:55:06;;;;;;;109.32;32.85;;;;;;;16.20;100.00;101303.97;4963595;28;20027;-68
2021/08/22 01:57:32;;;;;;;129.85;36.47;;;;;;;16.19;100.00;101304.84;4961672;28;20041;-68
2021/08/22 01:59:58;;;;;;;151.13;42.75;;;;;;;16.12;100.00;101306.72;4981707;28;20113;-68
2021/08/22 02:02:23;;;;;;;164.30;41.78;;;;;;;16.11;100.00;101301.41;4982285;28;20034;-68
2021/08/22 02:04:58;;;;;;;156.85;42.17;;;;;;;16.11;100.00;101304.06;4980719;28;20038;-65
2021/08/22 02:07:27;;;;;;;162.98;42.47;;;;;;;16.12;100.00;101314.72;4982338;28;20470;-68
2021/08/22 02:10:13;;;;;;;174.77;44.88;;;;;;;16.14;100.00;101314.72;4981118;28;20438;-68
2021/08/22 02:12:39;;;;;;;179.75;46.28;;;;;;;16.14;100.00;101312.03;5051052;28;20099;-68
2021/08/22 02:15:21;;;;;;;194.50;46.42;;;;;;;16.14;100.00;101312.03;5063847;28;20017;-68
2021/08/22 02:17:54;;;;;;;208.05;50.65;;;;;;;16.11;100.00;101317.41;5061148;28;20032;-68
2021/08/22 02:20:20;;;;;;;206.20;50.92;;;;;;;16.10;100.00;101315.63;5062807;28;20494;-67
2021/08/22 02:22:47;;;;;;;214.88;52.13;;;;;;;16.10;100.00;101326.31;5060982;28;20051;-68
2021/08/22 02:25:14;;;;;;;230.88;53.28;;;;;;;16.09;100.00;101311.19;5064356;28;20099;-67
2021/08/22 02:27:39;;;;;;;220.73;53.63;;;;;;;16.12;100.00;101312.06;5061282;28;20029;-67
2021/08/22 02:30:06;;;;;;;232.70;54.67;;;;;;;16.09;100.00;101314.75;5063658;28;20046;-68
2021/08/22 02:32:32;;;;;;;236.40;54.13;;;;;;;16.09;100.00;101305.84;5060476;28;20040;-68
2021/08/22 02:34:57;;;;;;;229.90;56.65;;;;;;;16.07;100.00;101305.88;5062725;28;20017;-68
2021/08/22 02:37:23;;;;;;;243.65;54.92;;;;;;;16.08;100.00;101317.44;5062856;28;20025;-68
2021/08/22 02:39:48;;;;;;;244.95;55.33;;;;;;;16.08;100.00;101307.66;5061278;28;20063;-68
2021/08/22 02:42:16;;;;;;;225.70;54.50;;;;;;;16.06;100.00;101316.56;5064361;28;20043;-68
2021/08/22 02:44:42;;;;;;;244.13;56.53;;;;;;;16.05;100.00;101305.03;5060865;28;20031;-68
2021/08/22 02:47:07;;;;;;;232.70;55.08;;;;;;;16.04;100.00;101314.78;5063757;28;20036;-68
2021/08/22 02:49:33;;;;;;;258.98;59.50;;;;;;;16.03;100.00;101309.47;5061481;28;20048;-68
2021/08/22 02:51:58;;;;;;;240.88;57.47;;;;;;;16.06;100.00;101313.91;5062335;28;20025;-68
2021/08/22 02:54:23;;;;;;;255.30;60.78;;;;;;;16.04;100.00;101319.25;5062919;28;20020;-68
2021/08/22 02:56:49;;;;;;;247.70;58.28;;;;;;;16.03;100.00;101317.47;5061292;28;20464;-68
2021/08/22 02:59:14;;;;;;;238.20;57.47;;;;;;;16.02;100.00;101316.59;5063932;28;20021;-67
2021/08/22 03:01:39;;;;;;;264.02;59.05;;;;;;;16.03;100.00;101313.03;5060472;28;20028;-66
2021/08/22 03:04:05;;;;;;;253.80;58.28;;;;;;;16.02;100.00;101310.41;5063622;28;20099;-68
2021/08/22 03:06:30;;;;;;;251.05;57.08;;;;;;;16.08;100.00;101313.00;5061700;28;20059;-68
2021/08/22 03:08:56;;;;;;;258.10;60.42;;;;;;;16.06;100.00;101313.91;5062079;28;20033;-68
2021/08/22 03:11:21;;;;;;;259.15;61.60;;;;;;;16.00;100.00;101310.41;5063170;28;20109;-67
2021/08/22 03:13:48;;;;;;;255.52;58.22;;;;;;;15.97;100.00;101307.75;5060764;28;20075;-68
2021/08/22 03:16:14;;;;;;;265.38;61.97;;;;;;;15.94;100.00;101306.91;5064029;28;20025;-68
2021/08/22 03:18:40;;;;;;;265.60;59.95;;;;;;;15.96;100.00;101314.00;5060392;28;20025;-67
2021/08/22 03:21:05;;;;;;;265.52;60.72;;;;;;;15.95;100.00;101304.25;5063105;28;20028;-68
2021/08/22 03:23:31;;;;;;;266.42;59.30;;;;;;;15.93;100.00;101314.03;5061667;28;20029;-69
2021/08/22 03:25:56;;;;;;;260.95;58.53;;;;;;;15.94;100.00;101304.25;5062016;28;20508;-69
2021/08/22 03:28:21;;;;;;;262.52;58.08;;;;;;;15.92;100.00;101306.94;5062753;28;20486;-68
2021/08/22 03:30:51;;;;;;;244.52;57.28;;;;;;;15.92;100.00;101303.41;5060778;28;20166;-69
2021/08/22 03:33:16;;;;;;;253.95;57.80;;;;;;;15.89;100.00;101306.97;5067410;28;20025;-68
2021/08/22 03:35:41;;;;;;;251.65;55.90;;;;;;;15.89;100.00;101306.97;5064217;28;20032;-68
2021/08/22 03:38:07;;;;;;;246.13;54.72;;;;;;;15.90;100.00;101308.75;5066911;28;20023;-68
2021/08/22 03:40:32;;;;;;;255.27;56.47;;;;;;;15.87;100.00;101308.75;5064800;28;20025;-69
2021/08/22 03:42:57;;;;;;;252.25;55.97;;;;;;;15.86;100.00;101312.34;5065664;28;20025;-68
2021/08/22 03:45:23;;;;;;;249.40;57.50;;;;;;;15.79;100.00;101321.28;5066481;28;20024;-68
2021/08/22 03:47:48;;;;;;;245.80;55.58;;;;;;;15.78;100.00;101316.81;5064114;28;20043;-69
2021/08/22 03:50:13;;;;;;;264.85;58.30;;;;;;;15.79;100.00;101323.97;5067042;28;20155;-69
2021/08/22 03:52:39;;;;;;;271.15;59.75;;;;;;;15.82;100.00;101323.94;5063651;28;20056;-68
2021/08/22 03:55:05;;;;;;;261.75;58.60;;;;;;;15.82;100.00;101323.94;5066050;28;20083;-69
2021/08/22 03:57:30;;;;;;;251.00;57.78;;;;;;;15.79;100.00;101324.84;5064834;28;20044;-68
2021/08/22 03:59:56;;;;;;;246.07;57.78;;;;;;;15.78;100.00;101324.81;5064837;28;20040;-69
2021/08/22 04:02:21;;;;;;;242.38;57.05;;;;;;;15.76;100.00;101327.50;5066126;28;20021;-68
2021/08/22 04:04:47;;;;;;;228.68;58.38;;;;;;;15.74;100.00;101334.63;5064007;28;20040;-67
2021/08/22 04:07:13;;;;;;;226.40;55.75;;;;;;;15.76;100.00;101323.97;5066790;28;20025;-66
2021/08/22 04:09:39;;;;;;;219.93;54.55;;;;;;;15.74;100.00;101325.75;5063241;28;20082;-67
2021/08/22 04:12:05;;;;;;;205.63;55.03;;;;;;;15.75;100.00;101325.72;5066014;28;20029;-68
2021/08/22 04:14:30;;;;;;;223.85;56.22;;;;;;;15.69;100.00;101324.00;5064789;28;20024;-68
2021/08/22 04:16:55;;;;;;;226.60;57.17;;;;;;;15.65;100.00;101318.72;5064753;28;20068;-68
2021/08/22 04:19:21;;;;;;;208.20;55.53;;;;;;;15.66;100.00;101320.50;5065947;28;20048;-67
2021/08/22 04:21:46;;;;;;;203.10;56.22;;;;;;;15.64;100.00;101325.84;5063097;28;20021;-66
2021/08/22 04:24:12;;;;;;;199.38;55.33;;;;;;;15.66;100.00;101328.47;5066393;28;20036;-67
2021/08/22 04:26:40;;;;;;;207.55;56.03;;;;;;;15.62;100.00;101324.94;5063443;28;20033;-67
2021/08/22 04:29:07;;;;;;;218.93;58.00;;;;;;;15.59;100.00;101322.31;5065632;28;20522;-68
2021/08/22 04:31:33;;;;;;;228.82;58.90;;;;;;;15.59;100.00;101319.66;5063941;28;20032;-68
2021/08/22 04:33:58;;;;;;;233.07;58.67;;;;;;;15.60;100.00;101328.53;5064751;28;20159;-68
2021/08/22 04:36:23;;;;;;;234.95;61.03;;;;;;;15.59;100.00;101319.66;5065168;28;20024;-67
2021/08/22 04:38:49;;;;;;;238.73;59.85;;;;;;;15.58;100.00;101328.56;5063429;28;20025;-67
2021/08/22 04:41:21;;;;;;;244.52;61.15;;;;;;;15.58;100.00;101333.88;5065960;28;20020;-67
2021/08/22 04:43:46;;;;;;;236.43;57.35;;;;;;;15.59;100.00;101335.63;5061793;28;20155;-68
2021/08/22 04:46:13;;;;;;;242.75;60.78;;;;;;;15.56;100.00;101322.34;5065991;28;20058;-63
2021/08/22 04:48:38;;;;;;;234.38;58.95;;;;;;;15.60;100.00;101326.75;5063065;28;20048;-64
2021/08/22 04:51:03;;;;;;;224.25;56.70;;;;;;;15.60;100.00;101321.41;5064828;28;20380;-64
2021/08/22 04:53:29;;;;;;;238.35;57.08;;;;;;;15.59;100.00;101329.44;5064271;28;20028;-64
2021/08/22 04:55:54;;;;;;;234.90;56.97;;;;;;;15.57;100.00;101334.78;5063678;28;20506;-64
2021/08/22 04:58:20;;;;;;;235.95;59.95;;;;;;;15.57;100.00;101336.56;5065385;28;20162;-64
2021/08/22 05:00:45;;;;;;;238.48;58.85;;;;;;;15.56;100.00;101340.13;5062825;28;20029;-64
2021/08/22 05:03:10;;;;;;;228.52;56.60;;;;;;;15.60;100.00;101340.06;5065616;28;20049;-64
2021/08/22 05:05:35;;;;;;;234.70;58.55;;;;;;;15.59;100.00;101340.09;5062867;28;20036;-63
2021/08/22 05:08:01;;;;;;;241.32;58.85;;;;;;;15.58;100.00;101344.53;5064396;28;20051;-64
2021/08/22 05:10:26;;;;;;;232.20;58.28;;;;;;;15.57;100.00;101339.22;5064299;28;20417;-64
2021/08/22 05:12:51;;;;;;;230.40;56.90;;;;;;;15.58;100.00;101344.53;5062762;28;20132;-64
2021/08/22 05:15:17;;;;;;;234.90;58.95;;;;;;;15.59;100.00;101334.75;5065563;28;20031;-64
2021/08/22 05:17:42;;;;;;;224.93;57.17;;;;;;;15.59;100.00;101348.97;5062238;28;20021;-64
2021/08/22 05:20:08;;;;;;;224.10;56.50;;;;;;;15.55;100.00;101344.53;5064853;28;20162;-63
2021/08/22 05:22:34;;;;;;;209.75;58.88;;;;;;;15.54;100.00;101345.47;5063429;28;20024;-64
2021/08/22 05:24:59;;;;;;;204.75;54.45;;;;;;;15.59;100.00;101348.97;5063596;28;20029;-64
2021/08/22 05:27:25;;;;;;;202.43;56.25;;;;;;;15.58;100.00;101349.88;5064149;28;20021;-64
2021/08/22 05:29:51;;;;;;;207.43;55.13;;;;;;;15.60;100.00;101347.19;5062707;28;20021;-65
2021/08/22 05:32:16;;;;;;;206.38;55.55;;;;;;;15.60;100.00;101340.06;5065108;28;20021;-64
2021/08/22 05:34:41;;;;;;;201.05;54.83;;;;;;;15.60;100.00;101342.75;5062212;28;20025;-64
2021/08/22 05:37:07;;;;;;;196.73;54.72;;;;;;;15.61;100.00;101349.84;5064424;28;20031;-64
2021/08/22 05:39:32;;;;;;;189.50;54.28;;;;;;;15.57;100.00;101350.75;5063019;28;20078;-67
2021/08/22 05:41:57;;;;;;;172.30;52.38;;;;;;;15.57;100.00;101341.91;5063238;28;20456;-67
2021/08/22 05:44:23;;;;;;;164.65;51.58;;;;;;;15.51;100.00;101340.16;5063161;28;20020;-63
2021/08/22 05:46:48;;;;;;;166.93;51.28;;;;;;;15.53;100.00;101351.69;5071843;28;20074;-63
2021/08/22 05:49:13;;;;;;;165.05;51.65;;;;;;;15.52;100.00;101342.81;5071604;28;20048;-63
2021/08/22 05:51:45;;;;;;;149.70;48.45;;;;;;;15.54;100.00;101352.56;5070341;28;20036;-63
2021/08/22 05:54:11;;;;;;;148.93;48.75;;;;;;;15.49;100.00;101347.28;5068619;28;20063;-64
2021/08/22 05:56:36;;;;;;;152.95;48.03;;;;;;;15.49;100.00;101353.50;5071029;28;20452;-64
2021/08/22 05:59:09;;;;;;;150.93;48.58;;;;;;;15.55;100.00;101349.88;5071331;28;20036;-63
2021/08/22 06:01:40;;;;;;;157.15;48.88;;;;;;;15.58;100.00;101352.53;5071742;28;20024;-64
2021/08/22 06:04:06;;;;;;;138.50;46.70;;;;;;;15.66;100.00;101364.00;5071415;28;20467;-65
2021/08/22 06:06:31;;;;;;;133.98;46.58;;;;;;;15.73;100.00;101363.94;5071378;28;20039;-64
2021/08/22 06:08:56;;;;;;;133.10;44.33;;;;;;;15.80;100.00;101352.34;5071010;28;20036;-63
2021/08/22 06:11:22;;;;;;;133.32;45.65;;;;;;;15.77;100.00;101358.59;5071218;28;20028;-63
2021/08/22 06:13:47;;;;;;;118.55;44.53;;;;;;;15.74;100.00;101365.72;5071144;28;20028;-64
2021/08/22 06:16:12;;;;;;;118.57;41.83;;;;;;;15.75;100.00;101359.50;5071435;28;20056;-63
2021/08/22 06:18:38;;;;;;;119.72;42.38;;;;;;;15.76;100.00;101364.81;5071378;28;20043;-64
2021/08/22 06:21:03;;;;;;;108.80;40.28;;;;;;;15.79;100.00;101358.59;5070116;28;20027;-64
2021/08/22 06:23:29;;;;;;;113.70;42.38;;;;;;;15.78;100.00;101363.03;5069934;28;20048;-68
2021/08/22 06:25:54;;;;;;;97.40;38.47;;;;;;;15.80;100.00;101363.94;5071667;28;20078;-68
2021/08/22 06:28:20;;;;;;;108.25;39.72;;;;;;;15.85;100.00;101362.09;5071213;28;20028;-67
2021/08/22 06:30:45;;;;;;;102.28;39.42;;;;;;;15.92;100.00;101360.25;5070710;28;20487;-68
2021/08/22 06:33:11;;;;;;;104.63;40.03;;;;;;;16.01;100.00;101360.16;5070938;28;20464;-68
2021/08/22 06:35:36;;;;;;;99.13;39.97;;;;;;;16.06;100.00;101367.22;5062877;28;20033;-67
2021/08/22 06:38:02;;;;;;;98.60;40.10;;;;;;;16.10;100.00;101359.19;5060964;28;20384;-68
2021/08/22 06:40:28;;;;;;;82.45;37.83;;;;;;;16.16;100.00;101374.22;5063968;28;20029;-68
2021/08/22 06:42:53;;;;;;;74.95;36.38;;;;;;;16.14;100.00;101362.72;5060366;28;20067;-69
2021/08/22 06:45:18;;;;;;;68.78;35.03;;;;;;;16.14;100.00;101363.59;5063445;28;20040;-68
2021/08/22 06:47:46;;;;;;;61.58;32.03;;;;;;;16.16;100.00;101379.56;5061390;28;20029;-68
2021/08/22 06:50:12;;;;;;;67.68;34.38;;;;;;;16.20;100.00;101373.31;5061962;28;20076;-68
2021/08/22 06:52:37;;;;;;;62.33;32.58;;;;;;;16.25;100.00;101370.59;5062941;28;20467;-68
2021/08/22 06:55:03;;;;;;;59.67;32.28;;;;;;;16.34;100.00;101368.72;5061357;28;20092;-68
2021/08/22 06:57:28;;;;;;;59.05;31.23;;;;;;;16.42;100.00;101367.75;5063636;28;20068;-68
2021/08/22 06:59:54;;;;;;;56.28;28.88;;;;;;;16.48;100.00;101379.19;5060715;28;20115;-69
2021/08/22 07:02:19;;;;;;;57.50;31.15;;;;;;;16.53;100.00;101371.16;5063752;28;20474;-68
2021/08/22 07:04:44;;;;;;;57.60;30.42;;;;;;;16.58;100.00;101361.31;5061895;28;20035;-68
2021/08/22 07:07:09;;;;;;;53.58;30.70;;;;;;;16.67;100.00;101370.97;5064894;28;20028;-68
2021/08/22 07:09:35;;;;;;;52.63;30.50;;;;;;;16.67;100.00;101385.22;5066988;28;20055;-68
2021/08/22 07:12:00;;;;;;;48.63;29.70;;;;;;;16.78;100.00;101379.75;5064652;28;20021;-68
2021/08/22 07:14:25;;;;;;;47.13;28.13;;;;;;;16.78;100.00;101373.53;5068064;28;20032;-68
2021/08/22 07:16:51;;;;;;;45.42;27.67;;;;;;;16.82;100.00;101375.22;5064758;28;20025;-69
2021/08/22 07:19:16;;;;;;;45.97;26.40;;;;;;;16.86;100.00;101382.31;5066758;28;20475;-68
2021/08/22 07:21:41;;;;;;;39.83;23.55;;;;;;;16.85;100.00;101380.56;5066060;28;20448;-63
2021/08/22 07:24:07;;;;;;;37.47;23.67;;;;;;;16.78;100.00;101381.53;5065416;28;20025;-63
2021/08/22 07:26:32;;;;;;;36.63;22.58;;;;;;;16.72;100.00;101380.69;5067152;28;20055;-65
2021/08/22 07:28:58;;;;;;;34.53;19.83;;;;;;;16.70;100.00;101379.84;5064067;28;20571;-63
2021/08/22 07:31:23;;;;;;;32.75;18.52;;;;;;;16.74;100.00;101384.22;5063752;28;20032;-63
2021/08/22 07:33:49;;;;;;;34.45;19.20;;;;;;;16.72;100.00;101367.34;5066015;28;20128;-64
2021/08/22 07:36:14;;;;;;;31.33;17.80;;;;;;;16.72;100.00;101372.69;5065083;28;20020;-64
2021/08/22 07:38:39;;;;;;;31.02;16.95;;;;;;;16.76;100.00;101375.31;5065752;28;20024;-63
2021/08/22 07:41:05;;;;;;;30.75;17.80;;;;;;;16.79;100.00;101368.16;5066516;28;20100;-64
2021/08/22 07:43:31;;;;;;;30.85;18.25;;;;;;;16.83;100.00;101374.34;5063989;28;20456;-63
2021/08/22 07:45:57;;;;;;;32.92;19.23;;;;;;;16.88;100.00;101364.53;5067087;28;20112;-64
2021/08/22 07:48:22;;;;;;;34.03;20.33;;;;;;;16.98;100.00;101371.50;5064002;28;20116;-64
2021/08/22 07:50:47;;;;;;;33.63;19.90;;;;;;;17.03;100.00;101377.66;5066495;28;20028;-64
2021/08/22 07:53:16;;;;;;;35.58;21.35;;;;;;;17.10;100.00;101382.94;5064981;28;20021;-63
2021/08/22 07:55:41;;;;;;;33.65;21.50;;;;;;;17.19;100.00;101374.78;5065516;28;20045;-64
2021/08/22 07:58:06;;;;;;;34.38;21.30;;;;;;;17.32;100.00;101376.34;5065946;28;20112;-63
2021/08/22 08:00:32;;;;;;;35.25;21.60;;;;;;;17.51;100.00;101373.41;5064451;28;20104;-64
2021/08/22 08:02:57;;;;;;;33.63;21.30;;;;;;;17.82;100.00;101380.91;5066257;28;20147;-64
2021/08/22 08:05:22;;;;;;;30.20;18.90;;;;;;;17.89;100.00;101378.06;5065972;28;20468;-64
2021/08/22 08:07:48;;;;;;;31.20;18.83;;;;;;;17.80;100.00;101380.06;5065336;28;20035;-64
2021/08/22 08:10:13;;;;;;;30.23;18.60;;;;;;;17.75;100.00;101386.34;5063652;28;20025;-63
2021/08/22 08:12:38;;;;;;;29.65;17.63;;;;;;;17.58;100.00;101375.06;5066098;28;20032;-64
2021/08/22 08:15:04;;;;;;;31.25;18.45;;;;;;;17.43;100.00;101386.88;5063443;28;20029;-64
2021/08/22 08:17:30;;;;;;;32.25;19.67;;;;;;;17.36;100.00;101386.09;5066313;28;20116;-64
2021/08/22 08:19:55;;;;;;;31.70;18.85;;;;;;;17.43;100.00;101385.09;5064313;28;20502;-63
2021/08/22 08:22:22;;;;;;;31.80;18.80;;;;;;;17.32;100.00;101386.16;5064927;28;20029;-63
2021/08/22 08:24:47;;;;;;;31.75;19.67;;;;;;;17.20;100.00;101388.09;5065045;28;20063;-64
2021/08/22 08:27:12;;;;;;;32.35;18.45;;;;;;;17.11;100.00;101390.00;5063608;28;20056;-67
2021/08/22 08:29:37;;;;;;;34.65;19.25;;;;;;;17.13;100.00;101390.91;5066398;28;20091;-64
2021/08/22 08:32:03;;;;;;;32.03;18.50;;;;;;;17.25;100.00;101396.03;5062930;28;20031;-67
2021/08/22 08:34:29;;;;;;;32.15;18.75;;;;;;;17.36;100.00;101399.44;5065532;28;20127;-67
2021/08/22 08:36:54;;;;;;;31.05;18.48;;;;;;;17.52;100.00;101393.88;5064439;28;20420;-67
2021/08/22 08:39:19;;;;;;;31.83;18.75;;;;;;;17.50;100.00;101398.34;5064335;28;20433;-67
2021/08/22 08:41:45;;;;;;;30.40;17.73;;;;;;;17.37;100.00;101403.91;5065537;28;20501;-65
2021/08/22 08:44:12;;;;;;;32.13;19.05;;;;;;;17.20;100.00;101403.25;5063048;28;20388;-64
2021/08/22 08:46:43;;;;;;;34.33;20.00;;;;;;;17.10;100.00;101399.81;5065853;28;20425;-65
2021/08/22 08:49:15;;;;;;;34.95;19.75;;;;;;;17.03;100.00;101401.69;5062287;28;20045;-68
2021/08/22 08:51:48;;;;;;;35.97;20.33;;;;;;;16.97;100.00;101399.09;5065606;28;20025;-68
2021/08/22 08:54:18;;;;;;;34.75;19.27;;;;;;;16.89;100.00;101417.00;5063531;28;20427;-68
2021/08/22 08:56:45;;;;;;;37.15;19.77;;;;;;;16.87;100.00;101409.00;5065183;28;20678;-68
2021/08/22 08:59:11;;;;;;;33.97;19.77;;;;;;;16.81;100.00;101406.41;5062825;28;20025;-68
2021/08/22 09:01:37;;;;;;;31.17;17.73;;;;;;;16.86;100.00;101403.66;5066125;28;20029;-67
2021/08/22 09:04:27;;;;;;;31.05;17.38;;;;;;;16.99;100.00;101415.97;5062528;28;20021;-68
2021/08/22 09:07:15;;;;;;;31.48;15.45;;;;;;;17.15;100.00;101407.78;5064517;28;20043;-68
2021/08/22 09:09:58;;;;;;;28.75;15.00;;;;;;;17.41;100.00;101410.06;5062287;28;20096;-68
2021/08/22 09:12:48;;;;;;;27.90;14.60;;;;;;;17.57;100.00;101410.72;5063508;28;20111;-68
2021/08/22 09:15:51;;;;;;;29.48;14.43;;;;;;;17.91;100.00;101407.50;5063009;28;20369;-68
2021/08/22 09:18:57;;;;;;;26.75;12.55;;;;;;;18.02;100.00;101410.88;5063673;28;20416;-67
2021/08/22 09:21:47;;;;;;;27.38;12.32;;;;;;;18.15;100.00;101410.66;5063925;28;20048;-68
2021/08/22 09:24:18;;;;;;;25.30;12.10;;;;;;;18.34;100.00;101413.88;5062478;28;20028;-68
2021/08/22 09:27:05;;;;;;;24.13;11.88;;;;;;;18.72;100.00;101410.44;5064543;28;20475;-68
2021/08/22 09:30:07;;;;;;;25.45;11.10;;;;;;;18.98;100.00;101417.09;5064001;28;20028;-68
2021/08/22 09:33:10;;;;;;;25.27;11.77;;;;;;;19.06;100.00;101427.63;5065408;28;20384;-68
2021/08/22 09:36:06;;;;;;;24.48;10.70;;;;;;;19.06;100.00;101414.22;5061936;28;20037;-64
2021/08/22 09:38:59;;;;;;;22.85;9.57;;;;;;;19.08;100.00;101425.81;5065065;28;20047;-68
2021/08/22 09:41:43;;;;;;;22.50;9.02;;;;;;;18.88;95.51;101424.41;5063806;28;20357;-66
2021/08/22 09:44:30;;;;;;;23.67;9.02;;;;;;;18.91;99.64;101424.34;5061484;28;20490;-64
2021/08/22 09:47:17;;;;;;;22.27;8.50;;;;;;;19.14;94.61;101421.19;5063804;28;20033;-65
2021/08/22 09:50:07;;;;;;;20.85;7.72;;;;;;;19.49;93.60;101426.66;5061606;28;20049;-65
2021/08/22 09:53:00;;;;;;;21.92;7.78;;;;;;;19.74;93.50;101432.28;5061719;28;20040;-64
2021/08/22 09:55:46;;;;;;;22.85;8.02;;;;;;;20.03;85.21;101441.47;5063471;28;20032;-66
2021/08/22 09:58:40;;;;;;;21.23;7.45;;;;;;;19.44;91.08;101428.53;5061616;28;20047;-64
2021/08/22 10:01:25;;;;;;;21.75;7.80;;;;;;;19.12;94.69;101431.06;5062900;28;20111;-66
2021/08/22 10:04:15;;;;;;;20.80;7.75;;;;;;;18.85;96.74;101428.94;5062545;28;20025;-64
2021/08/22 10:06:55;;;;;;;23.30;8.07;;;;;;;18.80;95.14;101429.91;5062455;28;20041;-66
2021/08/22 10:09:21;;;;;;;23.35;7.72;;;;;;;18.86;92.53;101425.31;5060712;28;20115;-64
2021/08/22 10:12:00;;;;;;;24.25;8.25;;;;;;;19.01;93.29;101429.53;5059942;28;20049;-63
2021/08/22 10:14:26;;;;;;;22.55;8.68;;;;;;;19.34;88.56;101423.41;5060033;28;20380;-64
2021/08/22 10:16:52;;;;;;;21.83;8.27;;;;;;;19.60;86.81;101434.44;5060788;28;20025;-63
2021/08/22 10:19:25;;;;;;;21.90;8.40;;;;;;;19.90;87.96;101427.47;5061143;28;20043;-64
2021/08/22 10:22:06;;;;;;;22.75;7.95;;;;;;;19.88;88.54;101426.63;5060297;28;20129;-64
2021/08/22 10:24:37;;;;;;;23.33;8.18;;;;;;;19.59;88.79;101438.06;5059161;28;20128;-66
2021/08/22 10:27:06;;;;;;;22.15;8.10;;;;;;;19.31;90.81;101434.22;5062248;28;20035;-65
2021/08/22 10:29:33;;;;;;;22.13;8.35;;;;;;;18.79;96.39;101433.50;5059027;28;20033;-65
2021/08/22 10:32:04;;;;;;;24.38;9.20;;;;;;;18.24;100.00;101432.78;5061147;28;20484;-64
2021/08/22 10:34:33;;;;;;;24.77;11.02;;;;;;;18.08;100.00;101428.63;5059237;28;20033;-64
2021/08/22 10:36:58;;;;;;;23.95;11.25;;;;;;;18.11;100.00;101425.88;5061743;28;20048;-64
2021/08/22 10:39:27;;;;;;;26.55;11.00;;;;;;;18.26;100.00;101430.06;5062177;28;20025;-63
2021/08/22 10:41:57;;;;;;;24.70;9.10;;;;;;;18.41;100.00;101429.78;5063043;28;20135;-66
2021/08/22 10:44:42;;;;;;;22.38;9.57;;;;;;;18.56;100.00;101417.91;5066784;28;20055;-63
2021/08/22 10:47:40;;;;;;;23.35;9.73;;;;;;;18.80;100.00;101410.28;5064995;28;20017;-64
2021/08/22 10:50:06;;;;;;;24.10;9.52;;;;;;;19.79;89.86;101411.66;5065549;28;20106;-69
2021/08/22 10:52:36;;;;;;;24.27;9.25;;;;;;;20.62;85.54;101407.66;5068036;28;20024;-69
2021/08/22 10:55:10;;;;;;;21.30;9.30;;;;;;;22.35;76.06;101404.88;5065001;28;20029;-70
2021/08/22 10:57:42;;;;;;;25.83;9.40;;;;;;;23.06;68.70;101399.53;5064498;28;20029;-70
2021/08/22 11:00:31;;;;;;;22.35;9.00;;;;;;;22.45;73.71;101406.31;5065039;28;20399;-70
2021/08/22 11:03:16;;;;;;;22.48;8.93;;;;;;;23.40;66.52;101401.81;5067026;28;20029;-69
2021/08/22 11:05:41;;;;;;;21.20;8.85;;;;;;;25.47;59.19;101392.63;5064580;28;20048;-70
2021/08/22 11:08:16;;;;;;;23.23;8.93;;;;;;;26.69;58.20;101397.16;5068133;28;20020;-70